• Join FlightAware (Why Join?)
  • Login
  • US Flag 
06:49AM EST


 

Airport Tracker/Info


-or-


 

Live Flight TrackerFlight Track Log ✈ DAL674 ✈ 15-May-2014 ✈ TIST / STT - KATL

Flight Track Log - Related Links

Times and Time Zones

All times are in EDT time to prevent confusion due to time zone crossing. See the DAL674 flight status page for this flight to view local times or setup timezone preferences in your user account.

Time Position Orientation Groundspeed Altitude Reporting Facility
EDT Latitude Longitude Course Direction KTS MPH feet Rate Location/Type
02:40PM 18.3333 -64.9333 289° West 160 184 1,400  Level San Juan Center
02:41PM 18.3000 -64.9167 155° Southeast 180 207 3,200 2,280 Climbing San Juan Center
02:42PM 18.2500 -64.9833 232° Southwest 290 334 6,000 2,820 Climbing San Juan Center
02:43PM 18.3009 -65.3289 283° West  Level FlightAware Approximate
02:43PM 18.2500 -65.0667 270° West 300 345 9,000  Level San Juan Center
02:44PM 18.3265 -65.4492 282° West  Level FlightAware Approximate
02:44PM 18.2667 -65.1500 282° West 310 357 12,000  Level San Juan Center
02:45PM 18.3510 -65.5697 289° West  Level FlightAware Approximate
02:45PM 18.3000 -65.2500 289° West 340 391 13,300  Level San Juan Center
02:46PM 18.3333 -65.3500 289° West 380 437 15,500 2,160 Climbing San Juan Center
02:47PM 18.3667 -65.4500 289° West 380 437 17,700 1,980 Climbing San Juan Center
02:48PM 18.4000 -65.5667 287° West 400 460 19,500 1,800 Climbing San Juan Center
02:49PM 18.4500 -65.6667 298° West 410 472 21,400 1,680 Climbing San Juan Center
02:50PM 18.5500 -65.7500 322° Northwest 430 495 22,900 1,500 Climbing San Juan Center
02:51PM 18.6333 -65.8333 317° Northwest 440 506 24,500 1,560 Climbing San Juan Center
02:52PM 18.7167 -65.9333 311° West 440 506 26,100 1,380 Climbing San Juan Center
02:53PM 18.8167 -66.0333 317° Northwest 460 529 27,400 1,200 Climbing San Juan Center
02:54PM 18.9000 -66.1167 317° Northwest 460 529 28,600 1,500 Climbing San Juan Center
02:55PM 19.0000 -66.2167 317° Northwest 460 529 30,500 1,980 Climbing San Juan Center
02:56PM 19.1000 -66.3167 317° Northwest 440 506 32,600 1,740 Climbing San Juan Center
02:57PM 19.1833 -66.4000 317° Northwest 440 506 34,000 1,320 Climbing San Juan Center
02:58PM 19.2667 -66.4833 317° Northwest 430 495 35,300 1,260 Climbing San Juan Center
02:59PM 19.3500 -66.5667 317° Northwest 410 472 36,600 1,140 Climbing San Juan Center
03:00PM 19.4167 -66.6500 310° West 410 472 37,600 660 Climbing San Juan Center
03:01PM 19.5000 -66.7333 317° Northwest 410 472 38,000 180 Climbing San Juan Center
03:02PM 19.5833 -66.8167 317° Northwest 410 472 38,000  Level San Juan Center
03:03PM 19.6667 -66.9000 317° Northwest 410 472 38,000  Level San Juan Center
03:04PM 19.7500 -67.0000 312° West 410 472 38,000  Level San Juan Center
03:05PM 19.8333 -67.0833 317° Northwest 410 472 38,000  Level San Juan Center
03:06PM 19.9167 -67.1667 317° Northwest 420 483 38,000  Level San Juan Center
03:07PM 19.9833 -67.2500 310° West 410 472 38,000  Level San Juan Center
03:08PM 20.0667 -67.3333 317° Northwest 410 472 38,000  Level San Juan Center
03:09PM 20.1500 -67.4167 317° Northwest 410 472 38,000  Level San Juan Center
03:10PM 20.2333 -67.5000 317° Northwest 410 472 38,000  Level San Juan Center
03:11PM 20.3167 -67.5833 317° Northwest 410 472 38,000  Level San Juan Center
03:12PM 20.4000 -67.6667 317° Northwest 410 472 38,000  Level San Juan Center
03:13PM 20.4700 -67.7419 315° West 407 468 38,000 -120 Level Miami Center
03:14PM 20.5500 -67.8258 316° Northwest 407 468 37,900  Descending Miami Center
03:15PM 20.6289 -67.9106 315° West 407 468 38,000  Climbing Miami Center
03:16PM 20.7075 -67.9964 314° West 407 468 38,000  Level Miami Center
03:17PM 20.7853 -68.0811 314° West 406 467 38,000  Level Miami Center
03:18PM 20.8578 -68.1719 311° West 406 467 38,000  Level Miami Center
03:19PM 20.9397 -68.2850 308° West 406 467 38,000  Level Miami Center
03:20PM 21.0064 -68.3794 307° West 405 466 38,000  Level Miami Center
03:21PM 21.0728 -68.4728 307° West 401 461 38,000  Level Miami Center
03:22PM 21.1403 -68.5661 308° West 399 459 38,000  Level Miami Center
03:23PM 21.2064 -68.6608 307° West 399 459 38,000  Level Miami Center
03:24PM 21.2742 -68.7547 308° West 399 459 38,000  Level Miami Center
03:25PM 21.3539 -68.8658 308° West 398 458 38,000  Level Miami Center
03:26PM 21.4206 -68.9594 307° West 398 458 38,000  Level Miami Center
03:27PM 21.4839 -69.0533 306° West 396 456 38,000  Level Miami Center
03:28PM 21.5525 -69.1464 308° West 396 456 38,000  Level Miami Center
03:29PM 21.6197 -69.2403 308° West 396 456 38,000  Level Miami Center
03:30PM 21.6861 -69.3339 307° West 396 456 38,000  Level Miami Center
03:32PM 21.7653 -69.4458 307° West 396 456 38,000  Level Miami Center
03:33PM 21.8306 -69.5383 307° West 395 455 38,000  Level Miami Center
03:34PM 21.8958 -69.6306 307° West 394 453 38,000  Level Miami Center
03:35PM 21.9603 -69.7233 307° West 392 451 38,000  Level Miami Center
03:36PM 22.0258 -69.8178 307° West 392 451 38,000  Level Miami Center
03:37PM 22.1069 -69.9306 308° West 392 451 38,000  Level Miami Center
03:38PM 22.1736 -70.0264 307° West 393 452 38,000  Level Miami Center
03:39PM 22.2394 -70.1211 307° West 393 452 38,000  Level Miami Center
03:40PM 22.3072 -70.2161 308° West 393 452 38,000  Level Miami Center
03:41PM 22.3733 -70.3125 307° West 395 455 38,000 300 Level Miami Center
03:42PM 22.4403 -70.4083 307° West 396 456 38,700 720 Climbing Miami Center
03:43PM 22.5197 -70.5228 307° West 396 456 39,500 600 Climbing Miami Center
03:44PM 22.5847 -70.6167 307° West 396 456 40,000 240 Climbing Miami Center
03:45PM 22.6500 -70.7100 307° West 396 456 40,000  Level Miami Center
03:46PM 22.7147 -70.8025 307° West 394 453 40,000  Level Miami Center
03:47PM 22.7806 -70.8983 307° West 394 453 40,000  Level Miami Center
03:48PM 22.8597 -71.0131 307° West 394 453 40,000  Level Miami Center
03:49PM 22.9256 -71.1081 307° West 394 453 40,000  Level Miami Center
03:50PM 22.9903 -71.2031 307° West 394 453 40,000  Level Miami Center
03:51PM 23.0556 -71.3008 306° West 394 453 40,000  Level Miami Center
03:52PM 23.1228 -71.3972 307° West 397 457 40,000  Level Miami Center
03:53PM 23.1892 -71.4925 307° West 398 458 40,000  Level Miami Center
03:54PM 23.2661 -71.6083 306° West 397 457 40,000  Level Miami Center
03:55PM 23.3317 -71.7033 307° West 397 457 40,000  Level Miami Center
03:56PM 23.3969 -71.8000 306° West 397 457 40,000  Level Miami Center
03:57PM 23.4619 -71.8975 306° West 397 457 40,000  Level Miami Center
03:58PM 23.5289 -71.9947 307° West 397 457 40,000  Level Miami Center
03:59PM 23.5950 -72.0911 307° West 397 457 40,000  Level Miami Center
04:01PM 23.6733 -72.2092 306° West 397 457 40,000  Level Miami Center
04:02PM 23.7383 -72.3072 306° West 398 458 40,000  Level Miami Center
04:03PM 23.8039 -72.4039 307° West 398 458 40,000  Level Miami Center
04:04PM 23.8692 -72.5008 306° West 398 458 40,000  Level Miami Center
04:05PM 23.9303 -72.5939 306° West 397 457 40,000  Level Miami Center
04:06PM 24.0086 -72.7114 306° West 397 457 40,000  Level Miami Center
04:07PM 24.0750 -72.8094 307° West 398 458 40,000  Level Miami Center
04:08PM 24.1392 -72.9072 306° West 398 458 40,000  Level Miami Center
04:09PM 24.2056 -73.0058 306° West 398 458 40,000  Level Miami Center
04:10PM 24.2714 -73.1056 306° West 400 460 40,000  Level Miami Center
04:11PM 24.3367 -73.2044 306° West 400 460 40,000  Level Miami Center
04:12PM 24.4150 -73.3225 306° West 400 460 40,000  Level Miami Center
04:13PM 24.4803 -73.4222 306° West 400 460 40,000  Level Miami Center
04:14PM 24.5436 -73.5208 305° West 399 459 40,000  Level Miami Center
04:15PM 24.6100 -73.6200 306° West 401 461 40,000  Level Miami Center
04:16PM 24.6744 -73.7181 306° West 399 459 40,000  Level Miami Center
04:17PM 24.7400 -73.8181 306° West 402 463 40,000  Level Miami Center
04:18PM 24.8044 -73.9172 306° West 401 461 40,000  Level Miami Center
04:19PM 24.8808 -74.0339 306° West 394 453 40,000  Level Miami Center
04:20PM 24.9450 -74.1322 306° West 394 453 40,000  Level Miami Center
04:21PM 25.0072 -74.2311 305° West 394 453 40,000  Level Miami Center
04:22PM 25.0719 -74.3294 306° West 394 453 40,000  Level Miami Center
04:23PM 25.1325 -74.4286 304° West 393 452 40,000  Level Miami Center
04:24PM 25.1906 -74.5317 302° West 393 452 40,000  Level Miami Center
04:25PM 25.2608 -74.6542 302° West 393 452 40,000  Level Miami Center
04:26PM 25.3211 -74.7550 303° West 394 453 40,000  Level Miami Center
04:27PM 25.3858 -74.8539 306° West 395 455 40,000  Level Miami Center
04:28PM 25.4483 -74.9544 305° West 395 455 40,000  Level Miami Center
04:29PM 25.5108 -75.0536 305° West 395 455 40,000  Level Miami Center
04:30PM 25.5733 -75.1547 304° West 396 456 40,000  Level Miami Center
04:31PM 25.6486 -75.2731 305° West 395 455 40,000  Level Miami Center
04:33PM 25.7100 -75.3725 304° West 393 452 40,000  Level Miami Center
04:34PM 25.7758 -75.4792 304° West 394 453 40,000  Level Miami Center
04:35PM 25.8389 -75.5786 305° West 394 453 40,000  Level Miami Center
04:36PM 25.9011 -75.6792 305° West 394 453 40,000  Level Miami Center
04:37PM 25.9617 -75.7781 304° West 392 451 40,000  Level Miami Center
04:38PM 26.0306 -75.8886 305° West 390 449 40,000  Level Miami Center
04:39PM 26.0903 -75.9911 303° West 395 455 40,000  Level Miami Center
04:40PM 26.1503 -76.0928 303° West 395 455 40,000  Level Miami Center
04:41PM 26.2186 -76.2075 304° West 397 457 40,000  Level Miami Center
04:42PM 26.2792 -76.3103 303° West 398 458 40,000  Level Miami Center
04:43PM 26.3408 -76.4167 303° West 406 467 40,000  Level Miami Center
04:44PM 26.4022 -76.5206 303° West 404 465 40,000  Level Miami Center
04:45PM 26.4708 -76.6378 303° West 407 468 40,000  Level Miami Center
04:46PM 26.5353 -76.7419 305° West 407 468 40,000  Level Miami Center
04:47PM 26.6031 -76.8461 306° West 413 475 40,000  Level Miami Center
04:48PM 26.6697 -76.9642 302° West 412 474 40,000  Level Miami Center
04:49PM 26.7297 -77.0706 302° West 409 471 40,000  Level Miami Center
04:50PM 26.7906 -77.1800 302° West 411 473 40,000  Level Miami Center
04:51PM 26.8508 -77.2878 302° West 411 473 40,000  Level Miami Center
04:52PM 26.9181 -77.4078 302° West 411 473 40,000  Level Miami Center
04:53PM 26.9797 -77.5194 302° West 421 484 40,000  Level Miami Center
04:54PM 27.0428 -77.6283 303° West 420 483 40,000  Level Miami Center
04:55PM 27.1119 -77.7450 304° West 411 473 40,000  Level Miami Center
04:56PM 27.1769 -77.8539 304° West 417 480 40,000  Level Miami Center
04:57PM 27.2419 -77.9625 304° West 417 480 40,000  Level Miami Center
04:58PM 27.3067 -78.0717 304° West 420 483 40,000  Level Miami Center
04:59PM 27.3694 -78.1786 303° West 418 481 40,000 60 Level Miami Center
05:00PM 27.4331 -78.2881 303° West 418 481 40,200 480 Climbing Miami Center
05:01PM 27.4975 -78.3964 304° West 417 480 41,000 360 Climbing Miami Center
05:02PM 27.5711 -78.5231 303° West 409 471 41,000  Level Miami Center
05:03PM 27.6333 -78.6281 304° West 406 467 41,000  Level Miami Center
05:04PM 27.7039 -78.7419 305° West 406 467 41,000  Level Miami Center
05:06PM 27.7694 -78.8447 306° West 414 476 41,000  Level Miami Center
05:07PM 27.8367 -78.9561 304° West 414 476 41,000  Level Miami Center
05:08PM 27.8961 -79.0533 305° West 414 476 41,000  Level Miami Center
05:10PM 28.0400 -79.2847 305° West 409 471 41,000  Level Miami Center
05:11PM 28.1047 -79.3908 305° West 410 472 41,000  Level Miami Center
05:12PM 28.1694 -79.4981 304° West 412 474 41,000  Level Miami Center
05:13PM 28.2353 -79.6050 305° West 413 475 41,000  Level Miami Center
05:14PM 28.3125 -79.7317 305° West 408 470 41,000  Level Miami Center
05:15PM 28.3764 -79.8383 304° West 409 471 41,000  Level Miami Center
05:16PM 28.4542 -79.9656 305° West 411 473 41,000  Level Miami Center
05:17PM 28.5211 -80.0775 304° West 411 473 41,000  Level Miami Center
05:18PM 28.5900 -80.1911 305° West 412 474 41,000  Level Miami Center
05:19PM 28.6592 -80.3067 304° West 419 482 41,000  Level Miami Center
05:20PM 28.7319 -80.4186 307° West 422 486 41,000  Level Miami Center
05:21PM 28.8036 -80.5200 309° West 425 489 41,000  Level Miami Center
05:22PM 28.8817 -80.6289 309° West 425 489 41,000  Level Miami Center
05:23PM 28.9608 -80.7306 312° West 429 494 41,000  Level Miami Center
05:24PM 29.0528 -80.8236 319° Northwest 439 505 41,000  Level Miami Center
05:25PM 29.1508 -80.9086 323° Northwest 443 510 41,000  Level Miami Center
05:26PM 29.2164 -80.9583 326° Northwest 445 512 41,000  Level Jacksonville Center
05:27PM 29.3258 -81.0253 332° Northwest 445 512 41,000  Level Jacksonville Center
05:28PM 29.4436 -81.0850 336° Northwest 445 512 41,000  Level Jacksonville Center
05:29PM 29.5719 -81.1469 337° Northwest 451 519 41,000  Level Jacksonville Center
05:30PM 29.6894 -81.2022 338° Northwest 451 519 41,000  Level Jacksonville Center
05:31PM 29.8050 -81.2578 337° Northwest 456 525 41,000  Level Jacksonville Center
05:32PM 29.9247 -81.3156 337° Northwest 456 525 41,000  Level Jacksonville Center
05:33PM 30.0467 -81.3714 338° Northwest 456 525 41,000  Level Jacksonville Center
05:34PM 30.1642 -81.4269 338° Northwest 456 525 41,000  Level Jacksonville Center
05:35PM 30.2817 -81.4806 338° Northwest 456 525 41,000  Level Jacksonville Center
05:36PM 30.3972 -81.5414 336° Northwest 456 525 41,000  Level Jacksonville Center
05:37PM 30.5128 -81.6097 333° Northwest 456 525 41,000  Level Jacksonville Center
05:38PM 30.6281 -81.6758 334° Northwest 456 525 41,000  Level Jacksonville Center
05:39PM 30.7375 -81.7444 332° Northwest 456 525 41,000  Level Jacksonville Center
05:40PM 30.8528 -81.8108 334° Northwest 451 519 41,000  Level Jacksonville Center
05:41PM 30.9661 -81.8800 332° Northwest 458 527 41,000  Level Jacksonville Center
05:42PM 31.0772 -81.9442 334° Northwest 458 527 41,000  Level Jacksonville Center
05:43PM 31.1925 -82.0108 334° Northwest 453 521 41,000  Level Jacksonville Center
05:44PM 31.3058 -82.0803 332° Northwest 453 521 41,000  Level Jacksonville Center
05:45PM 31.4211 -82.1475 334° Northwest 453 521 41,000  Level Jacksonville Center
05:46PM 31.5364 -82.2175 333° Northwest 458 527 41,000  Level Jacksonville Center
05:47PM 31.6494 -82.2825 334° Northwest 458 527 41,000 -780 Level Jacksonville Center
05:49PM 31.8989 -82.4267 334° Northwest 464 534 38,700 -1,620 Descending Atlanta Center
05:50PM 32.0144 -82.5006 332° Northwest 470 541 36,000 -1,860 Descending Atlanta Center
05:51PM 32.1386 -82.5744 333° Northwest 481 554 35,000 -1,260 Descending Atlanta Center
05:52PM 32.2628 -82.6486 333° Northwest 486 559 33,500 -1,440 Descending Atlanta Center
05:53PM 32.3886 -82.7228 334° Northwest 491 565 32,200 -900 Descending Atlanta Center
05:54PM 32.5064 -82.8147 327° Northwest 501 577 31,800 -1,080 Descending Atlanta Center
05:55PM 32.5828 -82.9222 310° West 481 554 30,100 -1,440 Descending Atlanta Center
05:56PM 32.6778 -83.0517 311° West 501 577 29,000 -1,260 Descending Atlanta Center
05:57PM 32.7642 -83.1742 310° West 501 577 27,600 -1,800 Descending Atlanta Center
05:58PM 32.8464 -83.2897 310° West 481 554 25,500 -2,820 Descending Atlanta Center
05:59PM 32.9303 -83.3806 318° Northwest 441 507 22,000 -3,540 Descending Atlanta Center
06:00PM 33.0228 -83.4567 325° Northwest 415 478 18,500 -3,000 Descending Atlanta Center
06:01PM 33.0897 -83.5431 313° West 380 437 16,000 -2,160 Descending Atlanta Center
06:02PM 33.1381 -83.6419 300° West 358 412 14,200 -1,800 Descending Atlanta Center
06:03PM 33.2000 -83.7667 301° West 334 384 12,200 -1,320 Descending Atlanta TRACON
06:04PM 33.2333 -83.8500 296° West 298 343 11,500 -1,080 Descending Atlanta TRACON
06:05PM 33.3000 -83.9167 320° Northwest 296 341 10,100 -1,440 Descending Atlanta TRACON
06:06PM 33.4000 -83.9333 352° North 313 360 8,600 -1,080 Descending Atlanta TRACON
06:07PM 33.4667 -83.9333 360° North 300 345 8,000 -840 Descending Atlanta TRACON
06:08PM 33.5333 -83.9467 351° North 285 328 7,200 -600 Descending Atlanta Center
06:09PM 33.6000 -83.9839 335° Northwest 272 313 6,900 -600 Descending Atlanta Center
06:10PM 33.6272 -84.0464 298° West 218 251 6,000 -480 Descending Atlanta Center
06:11PM 33.6294 -84.1136 272° West 198 228 6,000 -360 Level Atlanta Center
06:12PM 33.6397 -84.1736 282° West 198 228 5,300 -1,080 Descending Atlanta Center
06:13PM 33.6333 -84.2500 264° West 182 209 3,800 -1,140 Descending Atlanta TRACON
06:14PM 33.6333 -84.3167 270° West 175 201 2,800 -900 Descending Atlanta TRACON
06:15PM 33.6333 -84.3667 270° West 147 169 2,000 -840 Descending Atlanta TRACON
06:16PM 33.6333 -84.4000 270° West 125 144 1,300 -720 Descending Atlanta TRACON